createdAt,value
2022-11-15T00:03:01.887Z,9.40
2022-11-15T00:07:04.815Z,9.40
2022-11-15T00:11:07.682Z,9.40
2022-11-15T00:15:12.096Z,9.40
2022-11-15T00:19:14.953Z,9.50
2022-11-15T00:23:17.782Z,9.60
2022-11-15T00:27:20.621Z,9.70
2022-11-15T00:31:24.837Z,9.70
2022-11-15T00:35:28.122Z,9.80
2022-11-15T00:39:30.978Z,9.90
2022-11-15T00:43:34.075Z,9.90
2022-11-15T00:47:38.544Z,10.00
2022-11-15T00:51:41.387Z,10.00
2022-11-15T00:55:44.213Z,10.00
2022-11-15T00:59:47.068Z,10.10
2022-11-15T01:03:51.298Z,10.20
2022-11-15T01:07:54.711Z,10.20
2022-11-15T01:11:57.648Z,10.20
2022-11-15T01:16:00.555Z,10.30
2022-11-15T01:20:05.163Z,10.30
2022-11-15T01:24:08.314Z,10.40
2022-11-15T01:28:11.151Z,10.40
2022-11-15T01:32:14.127Z,10.50
2022-11-15T01:36:19.146Z,10.50
2022-11-15T01:40:21.958Z,10.60
2022-11-15T01:44:40.181Z,10.60
2022-11-15T01:48:43.145Z,10.70
2022-11-15T01:52:47.473Z,10.70
2022-11-15T01:56:54.411Z,10.80
2022-11-15T02:00:57.308Z,10.90
2022-11-15T02:05:00.398Z,10.90
2022-11-15T02:09:04.902Z,10.90
2022-11-15T02:13:07.777Z,11.00
2022-11-15T02:17:18.387Z,11.00
2022-11-15T02:21:24.129Z,11.10
2022-11-15T02:25:39.501Z,11.10
2022-11-15T02:29:55.327Z,11.20
2022-11-15T02:34:06.471Z,11.20
2022-11-15T02:38:10.809Z,11.20
2022-11-15T02:42:30.702Z,11.30
2022-11-15T02:46:54.550Z,11.40
2022-11-15T02:50:58.871Z,11.40
2022-11-15T02:55:02.453Z,11.40
2022-11-15T02:59:14.079Z,11.50
2022-11-15T03:03:29.518Z,11.60
2022-11-15T03:07:37.187Z,11.60
2022-11-15T03:11:43.486Z,11.70
2022-11-15T03:15:49.707Z,11.80
2022-11-15T03:19:54.384Z,11.80
2022-11-15T03:24:00.495Z,11.90
2022-11-15T03:28:06.084Z,12.00
2022-11-15T03:32:10.660Z,12.10
2022-11-15T03:36:13.658Z,12.10
2022-11-15T03:40:18.481Z,12.10
2022-11-15T03:44:25.193Z,12.20
2022-11-15T03:48:30.707Z,12.20
2022-11-15T03:52:34.233Z,12.30
2022-11-15T03:56:38.410Z,12.30
2022-11-15T04:00:41.234Z,12.30
2022-11-15T04:04:44.285Z,12.40
2022-11-15T04:08:47.163Z,12.40
2022-11-15T04:12:51.361Z,12.40
2022-11-15T04:16:54.209Z,12.50
2022-11-15T04:21:14.248Z,12.50
2022-11-15T04:25:21.989Z,12.50
2022-11-15T04:29:36.562Z,12.60
2022-11-15T04:33:39.405Z,12.60
2022-11-15T04:37:47.909Z,12.60
2022-11-15T04:41:52.046Z,12.60
2022-11-15T04:45:56.237Z,12.70
2022-11-15T04:49:59.083Z,12.70
2022-11-15T04:54:01.937Z,12.70
2022-11-15T04:58:04.795Z,12.70
2022-11-15T05:02:08.999Z,12.70
2022-11-15T05:06:11.847Z,12.70
2022-11-15T05:10:14.698Z,12.70
2022-11-15T05:14:17.600Z,12.70
2022-11-15T05:18:23.744Z,12.70
2022-11-15T05:22:26.889Z,12.70
2022-11-15T05:26:30.116Z,12.60
2022-11-15T05:30:32.927Z,12.60
2022-11-15T05:34:37.156Z,12.60
2022-11-15T05:38:40.159Z,12.60
2022-11-15T05:42:43.225Z,12.50
2022-11-15T05:46:46.297Z,12.50
2022-11-15T05:50:50.640Z,12.50
2022-11-15T05:54:54.080Z,12.50
2022-11-15T05:58:59.697Z,12.50
2022-11-15T06:03:03.109Z,12.50
2022-11-15T06:07:07.508Z,12.50
2022-11-15T06:11:10.391Z,12.50
2022-11-15T06:15:13.302Z,12.50
2022-11-15T06:19:16.152Z,12.50
2022-11-15T06:23:20.431Z,12.50
2022-11-15T06:27:23.426Z,12.50
2022-11-15T06:31:26.292Z,12.50
2022-11-15T06:35:30.235Z,12.50
2022-11-15T06:39:34.535Z,12.50
2022-11-15T06:43:37.627Z,12.60
2022-11-15T06:47:46.058Z,12.60
2022-11-15T06:51:49.486Z,12.60
2022-11-15T06:55:55.592Z,12.60
2022-11-15T06:59:58.675Z,12.60
2022-11-15T07:04:01.514Z,12.70
2022-11-15T07:08:04.618Z,12.70
2022-11-15T07:12:09.078Z,12.70
2022-11-15T07:16:12.425Z,12.70
2022-11-15T07:20:15.798Z,12.70
2022-11-15T07:24:18.759Z,12.70
2022-11-15T07:28:22.968Z,12.70
2022-11-15T07:32:25.817Z,12.70
2022-11-15T07:36:28.705Z,12.70
2022-11-15T07:40:32.431Z,12.70
2022-11-15T07:44:36.651Z,12.70
2022-11-15T07:48:44.647Z,12.70
2022-11-15T07:52:48.068Z,12.80
2022-11-15T07:56:51.003Z,12.80
2022-11-15T08:00:55.241Z,12.90
2022-11-15T08:04:58.140Z,13.00
2022-11-15T08:09:00.935Z,13.00
2022-11-15T08:13:05.033Z,13.10
2022-11-15T08:17:09.301Z,13.20
2022-11-15T08:21:17.141Z,13.30
2022-11-15T08:25:21.264Z,13.40
2022-11-15T08:29:24.210Z,13.40
2022-11-15T08:33:28.868Z,13.50
2022-11-15T08:37:32.061Z,13.60
2022-11-15T08:41:36.782Z,13.60
2022-11-15T08:45:39.632Z,13.70
2022-11-15T08:49:43.847Z,13.80
2022-11-15T08:53:46.737Z,14.20
2022-11-15T08:57:49.590Z,14.40
2022-11-15T09:01:52.562Z,14.60
2022-11-15T09:05:58.079Z,15.00
2022-11-15T09:10:00.992Z,15.10
2022-11-15T09:14:03.916Z,15.30
2022-11-15T09:18:06.855Z,15.40
2022-11-15T09:22:11.051Z,15.60
2022-11-15T09:26:13.999Z,15.80
2022-11-15T09:46:35.553Z,16.90
2022-11-15T09:50:39.797Z,16.90
2022-11-15T09:54:53.507Z,17.70
2022-11-15T09:59:01.711Z,17.90
2022-11-15T10:03:16.708Z,18.90
2022-11-15T10:07:21.159Z,20.10
2022-11-15T10:11:40.683Z,20.30
2022-11-15T10:15:46.336Z,21.40
2022-11-15T10:19:54.822Z,21.40
2022-11-15T10:23:57.654Z,21.90
2022-11-15T10:28:02.966Z,22.20
2022-11-15T10:32:05.995Z,22.50
2022-11-15T10:36:21.169Z,22.80
2022-11-15T10:40:24.646Z,22.90
2022-11-15T10:44:28.762Z,22.90
2022-11-15T10:48:31.956Z,22.80
2022-11-15T10:52:37.217Z,22.90
2022-11-15T10:56:41.136Z,23.10
2022-11-15T11:00:44.046Z,23.40
2022-11-15T11:04:51.208Z,24.10
2022-11-15T11:08:59.258Z,24.30
2022-11-15T11:13:14.565Z,24.60
2022-11-15T11:17:21.657Z,24.70
2022-11-15T11:21:41.710Z,24.80
2022-11-15T11:25:51.029Z,24.80
2022-11-15T11:30:05.517Z,24.80
2022-11-15T11:34:15.174Z,25.00
2022-11-15T11:38:22.322Z,25.20
2022-11-15T11:42:30.601Z,25.40
2022-11-15T11:46:40.259Z,25.70
2022-11-15T11:50:44.108Z,26.00
2022-11-15T11:54:51.302Z,26.20
2022-11-15T11:58:57.408Z,26.20
2022-11-15T12:03:05.970Z,26.20
2022-11-15T12:07:11.087Z,26.20
2022-11-15T12:11:15.832Z,26.20
2022-11-15T12:15:21.530Z,26.20
2022-11-15T12:19:24.450Z,26.30
2022-11-15T12:23:30.182Z,26.20
2022-11-15T12:27:35.640Z,26.50
2022-11-15T12:31:41.758Z,26.70
2022-11-15T12:35:46.258Z,26.80
2022-11-15T12:40:19.841Z,26.60
2022-11-15T12:44:38.472Z,26.00
2022-11-15T12:48:59.286Z,25.10
2022-11-15T12:53:20.677Z,24.30
2022-11-15T12:57:35.750Z,23.50
2022-11-15T13:01:59.530Z,22.80
2022-11-15T13:06:04.084Z,22.20
2022-11-15T13:10:30.395Z,21.60
2022-11-15T13:14:51.062Z,21.20
2022-11-15T13:18:55.493Z,20.80
2022-11-15T13:23:04.003Z,20.50
2022-11-15T13:27:12.765Z,20.20
2022-11-15T13:31:27.983Z,20.00
2022-11-15T13:35:33.602Z,19.70
2022-11-15T13:39:38.495Z,19.40
2022-11-15T13:43:41.572Z,19.20
2022-11-15T13:47:45.942Z,19.00
2022-11-15T13:51:49.669Z,18.80
2022-11-15T13:55:53.494Z,18.60
2022-11-15T13:59:57.763Z,18.40
2022-11-15T14:04:02.996Z,18.20
2022-11-15T14:08:14.370Z,18.00
2022-11-15T14:12:38.404Z,17.90
2022-11-15T14:16:42.118Z,17.80
2022-11-15T14:20:46.356Z,17.70
2022-11-15T14:24:50.089Z,17.50
2022-11-15T14:28:52.943Z,17.40
2022-11-15T14:32:55.839Z,17.30
2022-11-15T14:37:00.037Z,17.20
2022-11-15T14:41:02.868Z,17.10
2022-11-15T14:45:10.924Z,17.00
2022-11-15T14:49:14.045Z,17.00
2022-11-15T14:53:19.858Z,16.90
2022-11-15T14:57:22.953Z,16.80
2022-11-15T15:01:27.914Z,16.70
2022-11-15T15:05:32.507Z,16.60
2022-11-15T15:09:36.738Z,16.50
2022-11-15T15:13:39.635Z,16.40
2022-11-15T15:17:42.556Z,16.30
2022-11-15T15:21:45.393Z,16.20
2022-11-15T15:25:50.114Z,16.10
2022-11-15T15:29:53.315Z,15.90
2022-11-15T15:33:56.191Z,15.80
2022-11-15T15:37:59.667Z,15.70
2022-11-15T15:42:04.906Z,15.60
2022-11-15T15:46:09.851Z,15.40
2022-11-15T15:50:19.174Z,15.30
2022-11-15T15:54:21.997Z,15.30
2022-11-15T15:58:26.339Z,15.20
2022-11-15T16:02:29.202Z,15.10
2022-11-15T16:06:36.377Z,15.10
2022-11-15T16:10:39.292Z,15.00
2022-11-15T16:14:43.766Z,15.00
2022-11-15T16:18:46.627Z,14.90
2022-11-15T16:22:49.673Z,14.90
2022-11-15T16:26:52.844Z,14.90
2022-11-15T16:31:03.632Z,14.80
2022-11-15T16:35:06.869Z,14.80
2022-11-15T16:39:14.150Z,14.70
2022-11-15T16:43:17.133Z,14.60
2022-11-15T16:47:21.829Z,14.60
2022-11-15T16:51:25.020Z,14.50
2022-11-15T16:55:30.395Z,14.50
2022-11-15T16:59:38.132Z,14.40
2022-11-15T17:03:44.663Z,14.40
2022-11-15T17:07:49.073Z,14.30
2022-11-15T17:11:52.512Z,14.30
2022-11-15T17:16:04.338Z,14.20
2022-11-15T17:20:17.676Z,14.10
2022-11-15T17:24:21.148Z,14.10
2022-11-15T17:28:24.311Z,14.00
2022-11-15T17:32:27.221Z,14.00
2022-11-15T17:36:33.905Z,13.90
2022-11-15T17:40:36.918Z,13.90
2022-11-15T17:44:39.778Z,13.80
2022-11-15T17:48:43.685Z,13.80
2022-11-15T17:52:47.932Z,13.80
2022-11-15T17:56:50.769Z,13.80
2022-11-15T18:00:53.678Z,13.80
2022-11-15T18:04:56.863Z,13.70
2022-11-15T18:09:01.248Z,13.70
2022-11-15T18:13:04.348Z,13.70
2022-11-15T18:17:07.465Z,13.70
2022-11-15T18:21:11.803Z,13.70
2022-11-15T18:25:16.308Z,13.60
2022-11-15T18:29:19.738Z,13.70
2022-11-15T18:33:23.081Z,13.60
2022-11-15T18:37:27.089Z,13.60
2022-11-15T18:41:31.829Z,13.60
2022-11-15T18:45:35.512Z,13.60
2022-11-15T18:49:38.367Z,13.60
2022-11-15T18:53:41.733Z,13.60
2022-11-15T18:57:45.983Z,13.60
2022-11-15T19:01:49.958Z,13.60
2022-11-15T19:05:52.818Z,13.60
2022-11-15T19:09:56.179Z,13.60
2022-11-15T19:14:03.266Z,13.60
2022-11-15T19:18:06.266Z,13.60
2022-11-15T19:22:09.143Z,13.60
2022-11-15T19:26:15.436Z,13.60
2022-11-15T19:30:19.773Z,13.60
2022-11-15T19:34:22.626Z,13.60
2022-11-15T19:38:25.525Z,13.60
2022-11-15T19:42:28.378Z,13.60
2022-11-15T19:46:32.738Z,13.60
2022-11-15T19:50:37.915Z,13.60
2022-11-15T19:54:40.786Z,13.60
2022-11-15T19:58:43.926Z,13.60
2022-11-15T20:02:48.136Z,13.60
2022-11-15T20:06:51.059Z,13.60
2022-11-15T20:10:54.063Z,13.60
2022-11-15T20:14:57.070Z,13.60
2022-11-15T20:19:01.449Z,13.60
2022-11-15T20:23:04.486Z,13.60
2022-11-15T20:27:08.523Z,13.60
2022-11-15T20:31:11.600Z,13.60
2022-11-15T20:35:15.934Z,13.70
2022-11-15T20:39:19.432Z,13.70
2022-11-15T20:43:22.422Z,13.80
2022-11-15T20:47:30.143Z,13.80
2022-11-15T20:51:34.581Z,13.90
2022-11-15T20:55:40.405Z,13.90
2022-11-15T20:59:43.462Z,13.90
2022-11-15T21:03:46.319Z,13.90
2022-11-15T21:07:50.617Z,13.90
2022-11-15T21:12:11.047Z,14.00
2022-11-15T21:16:14.159Z,14.00
2022-11-15T21:20:17.216Z,14.00
2022-11-15T21:24:22.358Z,14.00
2022-11-15T21:28:25.304Z,14.00
2022-11-15T21:32:28.974Z,14.00
2022-11-15T21:36:31.902Z,14.00
2022-11-15T21:40:36.176Z,14.00
2022-11-15T21:44:39.086Z,13.90
2022-11-15T21:48:42.480Z,14.00
2022-11-15T21:52:47.206Z,14.00
2022-11-15T21:56:51.523Z,14.00
2022-11-15T22:01:12.692Z,14.00
2022-11-15T22:05:15.783Z,14.00
2022-11-15T22:09:18.698Z,14.00
2022-11-15T22:13:23.031Z,14.00
2022-11-15T22:17:46.104Z,13.90
2022-11-15T22:21:48.992Z,13.90
2022-11-15T22:25:52.016Z,13.90
2022-11-15T22:29:56.344Z,13.90
2022-11-15T22:33:59.284Z,13.90
2022-11-15T22:38:02.275Z,13.90
2022-11-15T22:42:05.282Z,13.90
2022-11-15T22:46:10.270Z,13.80
2022-11-15T22:50:13.148Z,13.80
2022-11-15T22:54:16.071Z,13.80
2022-11-15T22:58:19.133Z,13.80
2022-11-15T23:02:23.584Z,13.80
2022-11-15T23:06:26.687Z,13.80
2022-11-15T23:10:47.097Z,13.80
2022-11-15T23:14:50.423Z,13.70
2022-11-15T23:18:55.776Z,13.70
2022-11-15T23:23:00.103Z,13.70
2022-11-15T23:27:04.908Z,13.70
2022-11-15T23:31:25.852Z,13.70
2022-11-15T23:35:30.097Z,13.70
2022-11-15T23:39:33.027Z,13.70
2022-11-15T23:43:35.935Z,13.60
2022-11-15T23:47:38.842Z,13.60
2022-11-15T23:51:43.080Z,13.60
2022-11-15T23:55:54.521Z,13.60
